Terminal Aerodrome Forecast
Issued by NWS

Home | Current Version | Previous Version | Text Only | Print | Product List | Glossary On
Versions: 1 2 3 4 5 6 7 8 9 10 11 12 13 14 15 16 17 18 19 20
110
FTUS42 KJAX 060624 AAA
TAFVQQ
TAF AMD
KVQQ 060624Z 0606/0706 20008KT 5SM -RA BKN040 OVC100 WS020/22040KT
      TEMPO 0606/0610 3SM TSRA BKN025CB OVC040
     FM061000 19010KT 5SM -SHRA BKN030 OVC050 WS020/23040KT
      TEMPO 0610/0614 2SM TSRA BKN015 OVC030CB
     FM061400 21016G23KT 5SM SHRA OVC025
      TEMPO 0614/0618 2SM TSRA OVC015CB
     FM061800 23018G27KT P6SM SCT035
     FM062300 24008KT P6SM SKC=

USA.gov is the U.S. government's official web portal to all federal, state and local government web resources and services.